Time;durP1;ratioP1;P1;durP2;ratioP2;P2;SDS_P1;SDS_P2;PMS_P1;PMS_P2;Temp;Humidity;BMP_temperature;BMP_pressure;BME280_temperature;BME280_humidity;BME280_pressure;Samples;Min_cycle;Max_cycle;Signal;HPM_P1;HPM_P2
2022/04/11 00:00:56;;;;;;;8.00;3.60;;;;;4.56;97157.80;;;;110505;1254;41189;-69
2022/04/11 00:03:26;;;;;;;8.20;3.70;;;;;4.60;97161.20;;;;110876;1253;41508;-71
2022/04/11 00:05:56;;;;;;;8.40;3.60;;;;;4.56;97164.00;;;;110874;1251;41452;-71
2022/04/11 00:08:25;;;;;;;7.70;3.20;;;;;4.50;97162.80;;;;110649;1254;41854;-71
2022/04/11 00:10:55;;;;;;;8.80;3.50;;;;;4.50;97163.80;;;;110624;1254;41169;-69
2022/04/11 00:13:25;;;;;;;6.90;3.10;;;;;4.50;97167.80;;;;110613;1252;41337;-70
2022/04/11 00:15:54;;;;;;;7.30;3.10;;;;;4.50;97169.40;;;;110639;1254;41906;-71
2022/04/11 00:18:25;;;;;;;7.00;3.10;;;;;4.50;97166.60;;;;110742;1252;41135;-71
2022/04/11 00:20:56;;;;;;;7.00;3.20;;;;;4.50;97173.80;;;;110671;1254;41176;-70
2022/04/11 00:23:27;;;;;;;8.40;3.60;;;;;4.50;97176.00;;;;110658;1254;41168;-71
2022/04/11 00:25:57;;;;;;;7.90;3.30;;;;;4.50;97179.60;;;;110662;1252;42019;-71
2022/04/11 00:28:27;;;;;;;7.60;3.50;;;;;4.50;97179.00;;;;110783;1251;41158;-70
2022/04/11 00:30:56;;;;;;;7.20;3.00;;;;;4.50;97182.20;;;;110690;1251;41343;-71
2022/04/11 00:33:27;;;;;;;7.00;2.80;;;;;4.50;97187.40;;;;110758;1253;41146;-70
2022/04/11 00:35:57;;;;;;;7.90;3.10;;;;;4.50;97189.80;;;;110831;1253;40994;-71
2022/04/11 00:38:27;;;;;;;9.10;3.10;;;;;4.46;97199.00;;;;110658;1253;41131;-70
2022/04/11 00:40:58;;;;;;;7.70;2.90;;;;;4.40;97198.60;;;;110783;1251;41157;-71
2022/04/11 00:43:33;;;;;;;7.00;3.20;;;;;4.40;97206.20;;;;110708;1253;41195;-71
2022/04/11 00:46:05;;;;;;;7.00;3.20;;;;;4.40;97208.20;;;;110822;1250;41617;-71
2022/04/11 00:48:36;;;;;;;7.40;3.20;;;;;4.30;97209.20;;;;110599;1254;41168;-71
2022/04/11 00:51:10;;;;;;;7.60;3.10;;;;;4.30;97205.00;;;;110904;1251;42381;-71
2022/04/11 00:53:45;;;;;;;6.90;3.10;;;;;4.30;97206.80;;;;110692;1253;41591;-71
2022/04/11 00:56:17;;;;;;;7.30;3.10;;;;;4.30;97205.80;;;;110655;1252;41148;-72
2022/04/11 00:58:47;;;;;;;8.90;3.40;;;;;4.28;97213.20;;;;110758;1253;41412;-71
2022/04/11 01:01:18;;;;;;;8.10;3.60;;;;;4.24;97217.20;;;;110657;1254;41754;-71
2022/04/11 01:03:48;;;;;;;7.30;3.50;;;;;4.20;97220.60;;;;110646;1254;41276;-69
2022/04/11 01:06:19;;;;;;;8.20;3.80;;;;;4.20;97221.80;;;;110690;1253;41356;-70
2022/04/11 01:08:50;;;;;;;9.10;4.10;;;;;4.18;97229.00;;;;110734;1252;41280;-70
2022/04/11 01:11:20;;;;;;;8.40;4.00;;;;;4.20;97236.00;;;;110853;1251;41160;-70
2022/04/11 01:13:50;;;;;;;8.30;3.90;;;;;4.20;97240.00;;;;110821;1254;40981;-70
2022/04/11 01:16:28;;;;;;;9.00;4.30;;;;;4.20;97242.00;;;;110590;1253;41149;-70
2022/04/11 01:18:58;;;;;;;7.70;3.60;;;;;4.20;97240.80;;;;110781;1253;41961;-70
2022/04/11 01:21:31;;;;;;;7.50;3.30;;;;;4.12;97243.00;;;;110809;1251;41383;-71
2022/04/11 01:24:00;;;;;;;7.10;3.30;;;;;4.16;97241.40;;;;110714;1253;41161;-70
2022/04/11 01:26:30;;;;;;;8.80;3.80;;;;;4.20;97243.80;;;;110696;1251;41166;-71
2022/04/11 01:29:00;;;;;;;7.40;3.20;;;;;4.20;97248.60;;;;110568;1254;41261;-70
2022/04/11 01:31:32;;;;;;;8.00;3.50;;;;;4.20;97252.40;;;;110668;1254;41293;-71
2022/04/11 01:34:01;;;;;;;7.60;3.30;;;;;4.20;97257.80;;;;110732;1251;41467;-71
2022/04/11 01:36:31;;;;;;;6.60;3.10;;;;;4.12;97259.00;;;;110930;1251;40912;-70
2022/04/11 01:39:01;;;;;;;6.90;3.00;;;;;4.10;97258.80;;;;110733;1251;41171;-70
2022/04/11 01:41:31;;;;;;;7.40;3.40;;;;;4.10;97264.80;;;;110672;1253;41587;-70
2022/04/11 01:44:01;;;;;;;7.00;3.10;;;;;4.10;97264.60;;;;110738;1251;41158;-70
2022/04/11 01:46:30;;;;;;;6.90;2.90;;;;;4.10;97265.40;;;;110718;1252;41157;-70
2022/04/11 01:49:09;;;;;;;7.30;3.20;;;;;4.10;97275.00;;;;110653;1254;41159;-69
2022/04/11 01:51:39;;;;;;;6.90;3.00;;;;;4.10;97273.40;;;;110663;1253;41175;-70
2022/04/11 01:54:08;;;;;;;9.30;3.30;;;;;4.10;97281.60;;;;110828;1251;41774;-70
2022/04/11 01:56:38;;;;;;;7.30;3.40;;;;;4.10;97282.80;;;;110819;1251;41383;-70
2022/04/11 01:59:08;;;;;;;7.50;3.60;;;;;4.10;97292.60;;;;110753;1251;41161;-70
2022/04/11 02:01:37;;;;;;;6.70;3.20;;;;;4.10;97290.40;;;;110669;1251;41265;-70
2022/04/11 02:04:08;;;;;;;6.90;3.00;;;;;4.10;97291.80;;;;110779;1251;41766;-70
2022/04/11 02:06:37;;;;;;;8.10;3.10;;;;;4.10;97293.40;;;;110749;1250;41163;-70
2022/04/11 02:09:07;;;;;;;8.80;3.60;;;;;4.10;97295.60;;;;110840;1251;42330;-70
2022/04/11 02:11:38;;;;;;;9.10;3.20;;;;;4.10;97301.20;;;;110795;1251;41174;-67
2022/04/11 02:14:09;;;;;;;7.00;3.20;;;;;4.10;97299.60;;;;110892;1251;42541;-70
2022/04/11 02:16:39;;;;;;;10.30;3.10;;;;;4.10;97301.40;;;;110749;1251;41324;-70
2022/04/11 02:19:08;;;;;;;7.70;3.60;;;;;4.04;97300.00;;;;110705;1250;40877;-70
2022/04/11 02:21:39;;;;;;;5.90;2.80;;;;;4.00;97299.00;;;;110700;1254;41183;-71
2022/04/11 02:24:10;;;;;;;8.00;3.30;;;;;4.00;97300.40;;;;110708;1253;41161;-70
2022/04/11 02:26:40;;;;;;;6.70;3.10;;;;;4.00;97305.60;;;;110718;1253;41545;-70
2022/04/11 02:29:10;;;;;;;8.90;3.30;;;;;4.00;97310.40;;;;110750;1251;41189;-71
2022/04/11 02:31:40;;;;;;;7.70;3.20;;;;;4.00;97302.80;;;;110690;1254;41253;-71
2022/04/11 02:34:10;;;;;;;7.10;3.20;;;;;3.94;97310.20;;;;110632;1254;42100;-70
2022/04/11 02:36:39;;;;;;;8.10;3.50;;;;;3.90;97314.00;;;;110721;1252;41144;-70
2022/04/11 02:39:09;;;;;;;8.80;3.30;;;;;3.90;97314.20;;;;110899;1251;41280;-72
2022/04/11 02:41:40;;;;;;;;;;;;;3.84;97320.80;;;;110748;1251;41628;-71
2022/04/11 02:44:09;;;;;;;7.60;3.20;;;;;3.80;97321.40;;;;110720;1251;41149;-71
2022/04/11 02:46:42;;;;;;;6.10;3.10;;;;;3.78;97325.20;;;;110732;1252;41366;-70
2022/04/11 02:49:11;;;;;;;7.60;3.30;;;;;3.70;97323.00;;;;110704;1253;40727;-70
2022/04/11 02:51:56;;;;;;;10.00;4.10;;;;;3.70;97324.00;;;;110769;1252;42391;-70
2022/04/11 02:54:27;;;;;;;8.60;4.00;;;;;3.70;97325.60;;;;110710;1251;41155;-70
2022/04/11 02:56:56;;;;;;;9.00;4.20;;;;;3.70;97332.20;;;;110689;1251;41361;-70
2022/04/11 02:59:26;;;;;;;10.20;4.60;;;;;3.60;97335.60;;;;110674;1251;41364;-70
2022/04/11 03:01:58;;;;;;;10.20;4.80;;;;;3.60;97333.00;;;;110654;1252;41256;-70
2022/04/11 03:04:29;;;;;;;9.00;4.10;;;;;3.50;97328.20;;;;110697;1253;41950;-70
2022/04/11 03:07:16;;;;;;;8.50;3.90;;;;;3.50;97336.40;;;;110691;1251;41283;-69
2022/04/11 03:09:47;;;;;;;7.20;3.30;;;;;3.40;97339.40;;;;110697;1252;41175;-69
2022/04/11 03:12:17;;;;;;;8.50;3.70;;;;;3.40;97337.60;;;;110701;1251;41139;-70
2022/04/11 03:14:50;;;;;;;9.40;3.80;;;;;3.40;97341.40;;;;110581;1256;41743;-71
2022/04/11 03:17:20;;;;;;;7.90;3.70;;;;;3.40;97341.80;;;;110719;1254;41505;-71
2022/04/11 03:19:50;;;;;;;7.80;3.30;;;;;3.30;97335.60;;;;110732;1251;41171;-72
2022/04/11 03:22:20;;;;;;;8.60;3.40;;;;;3.30;97344.00;;;;110724;1251;41845;-68
2022/04/11 03:24:55;;;;;;;7.40;3.60;;;;;3.30;97349.00;;;;110634;1253;41142;-70
2022/04/11 03:27:24;;;;;;;8.30;3.60;;;;;3.20;97354.40;;;;110613;1254;41163;-71
2022/04/11 03:29:55;;;;;;;8.30;3.90;;;;;3.20;97358.20;;;;110689;1251;41344;-70
2022/04/11 03:32:25;;;;;;;12.40;4.60;;;;;3.20;97361.80;;;;110719;1253;41172;-70
2022/04/11 03:34:54;;;;;;;8.50;4.00;;;;;3.20;97363.60;;;;110683;1251;41614;-71
2022/04/11 03:37:24;;;;;;;12.40;5.40;;;;;3.20;97364.20;;;;110712;1251;41853;-70
2022/04/11 03:40:03;;;;;;;11.00;4.80;;;;;3.16;97364.40;;;;110656;1253;41651;-70
2022/04/11 03:42:33;;;;;;;10.50;4.50;;;;;3.10;97373.00;;;;110734;1251;41147;-70
2022/04/11 03:45:02;;;;;;;12.10;5.80;;;;;3.10;97374.60;;;;110612;1251;42006;-70
2022/04/11 03:47:33;;;;;;;13.20;6.40;;;;;3.10;97373.00;;;;110663;1252;41595;-71
2022/04/11 03:50:03;;;;;;;10.80;5.30;;;;;3.10;97376.60;;;;110705;1251;41351;-70
2022/04/11 03:52:34;;;;;;;10.70;4.70;;;;;3.04;97377.20;;;;110710;1251;42415;-68
2022/04/11 03:55:06;;;;;;;9.60;4.30;;;;;3.06;97378.20;;;;110699;1251;41281;-70
2022/04/11 03:57:36;;;;;;;9.80;4.60;;;;;3.10;97376.00;;;;110613;1252;42477;-68
2022/04/11 04:00:06;;;;;;;8.00;3.80;;;;;3.10;97380.60;;;;110409;1254;41287;-69
2022/04/11 04:02:44;;;;;;;10.00;3.80;;;;;3.10;97387.00;;;;110660;1253;41966;-69
2022/04/11 04:05:14;;;;;;;11.70;5.40;;;;;3.10;97390.80;;;;110510;1254;41275;-69
2022/04/11 04:07:44;;;;;;;18.50;8.10;;;;;3.10;97393.00;;;;110715;1251;41148;-67
2022/04/11 04:10:14;;;;;;;17.90;7.90;;;;;3.10;97399.00;;;;110569;1254;41125;-70
2022/04/11 04:12:43;;;;;;;20.00;8.20;;;;;3.10;97405.60;;;;110627;1253;41160;-69
2022/04/11 04:15:17;;;;;;;21.10;9.80;;;;;3.10;97407.00;;;;110710;1252;42221;-70
2022/04/11 04:17:54;;;;;;;19.50;9.70;;;;;3.10;97412.40;;;;110833;1251;41608;-70
2022/04/11 04:20:27;;;;;;;16.40;8.30;;;;;3.10;97412.60;;;;110673;1253;41278;-70
2022/04/11 04:22:57;;;;;;;18.10;9.30;;;;;3.10;97418.80;;;;110702;1252;41471;-71
2022/04/11 04:25:30;;;;;;;15.60;8.40;;;;;3.10;97423.20;;;;110871;1251;41252;-69
2022/04/11 04:27:59;;;;;;;17.70;9.60;;;;;3.10;97422.00;;;;110515;1254;41184;-69
2022/04/11 04:30:31;;;;;;;25.00;13.20;;;;;3.18;97420.60;;;;110632;1251;41186;-70
2022/04/11 04:33:01;;;;;;;28.10;12.90;;;;;3.20;97426.40;;;;110945;1251;41270;-70
2022/04/11 04:35:31;;;;;;;20.30;10.20;;;;;3.20;97419.20;;;;110853;1251;41273;-71
2022/04/11 04:38:04;;;;;;;18.80;9.70;;;;;3.22;97427.00;;;;110646;1252;41855;-70
2022/04/11 04:40:38;;;;;;;18.20;9.10;;;;;3.30;97429.60;;;;110615;1251;42090;-70
2022/04/11 04:43:10;;;;;;;18.30;8.90;;;;;3.40;97422.40;;;;110757;1251;41160;-72
2022/04/11 04:45:39;;;;;;;17.40;7.90;;;;;3.40;97427.00;;;;110777;1251;41172;-71
2022/04/11 04:48:25;;;;;;;16.30;7.80;;;;;3.50;97433.60;;;;110650;1251;41270;-70
2022/04/11 04:50:54;;;;;;;14.90;7.10;;;;;3.60;97432.20;;;;110467;1252;41906;-70
2022/04/11 04:53:25;;;;;;;12.30;6.60;;;;;3.68;97438.20;;;;110725;1252;41138;-71
2022/04/11 04:55:58;;;;;;;12.70;6.80;;;;;3.70;97431.00;;;;110778;1251;42111;-70
2022/04/11 04:58:29;;;;;;;10.90;5.60;;;;;3.80;97430.00;;;;110739;1251;41258;-70
2022/04/11 05:01:00;;;;;;;11.30;5.30;;;;;3.90;97431.80;;;;110720;1252;41277;-72
2022/04/11 05:03:32;;;;;;;10.50;5.00;;;;;3.96;97431.80;;;;110818;1252;41164;-72
2022/04/11 05:06:01;;;;;;;12.00;5.90;;;;;4.10;97429.40;;;;110671;1252;41618;-71
2022/04/11 05:08:37;;;;;;;11.60;5.20;;;;;4.20;97431.40;;;;110830;1251;41154;-71
2022/04/11 05:11:07;;;;;;;11.30;5.70;;;;;4.30;97433.00;;;;110734;1250;41841;-71
2022/04/11 05:13:38;;;;;;;14.40;6.20;;;;;4.32;97430.40;;;;110681;1251;41206;-71
2022/04/11 05:16:08;;;;;;;11.40;5.60;;;;;4.38;97432.20;;;;110660;1254;42116;-70
2022/04/11 05:18:37;;;;;;;11.90;5.40;;;;;4.40;97430.40;;;;110824;1251;41851;-71
2022/04/11 05:21:06;;;;;;;9.50;4.60;;;;;4.50;97435.40;;;;110720;1251;41200;-71
2022/04/11 05:23:36;;;;;;;9.90;4.60;;;;;4.50;97431.20;;;;110719;1251;41599;-71
2022/04/11 05:26:05;;;;;;;10.20;4.10;;;;;4.54;97428.60;;;;110742;1251;41000;-71
2022/04/11 05:28:35;;;;;;;9.20;3.50;;;;;4.60;97435.00;;;;110805;1252;42527;-71
2022/04/11 05:31:05;;;;;;;9.80;4.10;;;;;4.60;97426.80;;;;110737;1252;42532;-72
2022/04/11 05:33:38;;;;;;;12.40;5.60;;;;;4.70;97429.40;;;;110645;1253;41139;-71
2022/04/11 05:36:10;;;;;;;11.10;5.10;;;;;4.70;97434.60;;;;111005;1252;41175;-71
2022/04/11 05:38:40;;;;;;;10.70;4.30;;;;;4.78;97433.60;;;;110795;1250;41525;-70
2022/04/11 05:41:10;;;;;;;9.00;4.00;;;;;4.90;97432.60;;;;110777;1251;41616;-71
2022/04/11 05:43:48;;;;;;;8.40;4.00;;;;;5.10;97430.60;;;;110767;1252;42180;-70
2022/04/11 05:46:19;;;;;;;;;;;;;5.24;97428.40;;;;110832;1252;41905;-71
2022/04/11 05:49:02;;;;;;;8.80;3.60;;;;;5.40;97424.80;;;;110653;1251;41283;-71
2022/04/11 05:51:33;;;;;;;;;;;;;5.60;97422.20;;;;110809;1251;41609;-70
2022/04/11 05:54:02;;;;;;;9.10;3.60;;;;;5.70;97424.20;;;;110932;1249;41219;-72
2022/04/11 05:56:33;;;;;;;8.10;3.80;;;;;5.82;97427.00;;;;110920;1249;41259;-70
2022/04/11 05:59:04;;;;;;;8.80;3.70;;;;;6.00;97426.00;;;;110817;1250;41923;-70
2022/04/11 06:01:35;;;;;;;8.40;3.50;;;;;6.10;97427.20;;;;110691;1252;41156;-71
2022/04/11 06:04:04;;;;;;;9.00;4.00;;;;;6.24;97421.20;;;;110918;1251;41240;-70
2022/04/11 06:06:34;;;;;;;9.90;3.50;;;;;6.42;97428.40;;;;110869;1251;41953;-71
2022/04/11 06:09:04;;;;;;;9.10;4.10;;;;;6.60;97426.80;;;;110739;1249;42506;-71
2022/04/11 06:11:34;;;;;;;;;;;;;6.78;97421.40;;;;110907;1250;42091;-70
2022/04/11 06:14:03;;;;;;;11.10;3.90;;;;;6.90;97418.20;;;;110832;1251;41281;-70
2022/04/11 06:16:32;;;;;;;8.50;3.80;;;;;7.10;97421.60;;;;110900;1252;41255;-69
2022/04/11 06:19:02;;;;;;;9.00;4.10;;;;;7.10;97418.40;;;;110789;1251;41602;-69
2022/04/11 06:21:31;;;;;;;9.00;4.20;;;;;7.20;97419.80;;;;110812;1252;41262;-70
2022/04/11 06:24:00;;;;;;;8.70;3.80;;;;;7.30;97420.80;;;;110770;1252;41177;-72
2022/04/11 06:26:29;;;;;;;8.60;3.50;;;;;7.40;97424.60;;;;110655;1251;373984;-71
2022/04/11 06:28:58;;;;;;;9.50;4.40;;;;;7.52;97425.40;;;;110833;1250;40882;-70
2022/04/11 06:31:28;;;;;;;9.60;3.60;;;;;7.64;97431.40;;;;110795;1251;41650;-72
2022/04/11 06:34:01;;;;;;;8.50;3.30;;;;;7.80;97432.20;;;;110661;1251;42156;-72
2022/04/11 06:36:31;;;;;;;9.30;3.90;;;;;7.98;97431.60;;;;110928;1249;41858;-68
2022/04/11 06:39:01;;;;;;;8.80;3.40;;;;;8.10;97438.00;;;;110769;1251;41231;-74
2022/04/11 06:41:32;;;;;;;9.80;3.70;;;;;8.20;97437.80;;;;110639;1251;41348;-72
2022/04/11 06:44:04;;;;;;;7.90;3.00;;;;;8.20;97439.40;;;;110928;1249;42396;-72
2022/04/11 06:47:02;;;;;;;7.30;3.20;;;;;8.30;97444.40;;;;110799;1252;41139;-71
2022/04/11 06:49:31;;;;;;;8.80;3.50;;;;;8.50;97436.40;;;;110943;1251;41589;-71
2022/04/11 06:52:00;;;;;;;8.00;3.20;;;;;8.50;97439.40;;;;110864;1251;42477;-72
2022/04/11 06:54:30;;;;;;;8.10;3.10;;;;;8.60;97439.20;;;;110801;1252;41413;-72
2022/04/11 06:57:00;;;;;;;8.10;2.90;;;;;8.80;97438.60;;;;110800;1251;41171;-72
2022/04/11 06:59:29;;;;;;;8.60;3.20;;;;;8.96;97443.20;;;;110758;1251;41131;-71
2022/04/11 07:01:58;;;;;;;7.30;3.00;;;;;9.10;97445.60;;;;110691;1251;41905;-72
2022/04/11 07:04:27;;;;;;;6.70;3.00;;;;;9.30;97449.20;;;;110715;1251;41149;-71
2022/04/11 07:06:56;;;;;;;21.90;7.30;;;;;9.54;97441.00;;;;110732;1251;41263;-71
2022/04/11 07:09:26;;;;;;;11.80;5.10;;;;;9.76;97444.80;;;;110955;1250;41935;-72
2022/04/11 07:11:56;;;;;;;7.80;3.00;;;;;10.00;97445.40;;;;110943;1249;41279;-71
2022/04/11 07:14:25;;;;;;;8.60;3.00;;;;;10.12;97450.40;;;;110797;1251;41591;-72
2022/04/11 07:16:54;;;;;;;8.50;3.10;;;;;10.30;97450.80;;;;110899;1250;41390;-72
2022/04/11 07:19:23;;;;;;;6.00;2.70;;;;;10.30;97451.00;;;;110910;1249;41876;-72
2022/04/11 07:21:52;;;;;;;9.60;2.70;;;;;10.50;97455.40;;;;110897;1251;41140;-72
2022/04/11 07:24:21;;;;;;;6.80;2.60;;;;;10.60;97461.60;;;;110830;1249;41515;-72
2022/04/11 07:26:50;;;;;;;6.00;2.70;;;;;10.78;97462.00;;;;110714;1251;41832;-72
2022/04/11 07:29:19;;;;;;;8.50;2.90;;;;;10.80;97466.80;;;;110747;1251;41156;-72
2022/04/11 07:31:47;;;;;;;8.00;3.10;;;;;10.98;97468.80;;;;110741;1252;41160;-72
2022/04/11 07:34:16;;;;;;;7.00;2.60;;;;;11.10;97469.20;;;;110781;1251;41190;-72
2022/04/11 07:36:45;;;;;;;9.30;3.20;;;;;10.90;97471.00;;;;111009;1251;41160;-72
2022/04/11 07:39:15;;;;;;;8.30;2.90;;;;;10.90;97471.60;;;;110799;1250;42387;-73
2022/04/11 07:41:43;;;;;;;6.10;2.60;;;;;11.00;97471.80;;;;110913;1249;41452;-73
2022/04/11 07:44:12;;;;;;;6.30;2.50;;;;;11.10;97474.60;;;;110901;1249;41969;-72
2022/04/11 07:46:41;;;;;;;8.70;2.80;;;;;11.20;97474.00;;;;110757;1250;41691;-72
2022/04/11 07:49:11;;;;;;;6.10;2.60;;;;;11.32;97473.60;;;;110945;1251;41161;-72
2022/04/11 07:51:40;;;;;;;7.90;2.50;;;;;11.58;97477.20;;;;110942;1250;42320;-72
2022/04/11 07:54:09;;;;;;;6.20;2.60;;;;;11.70;97472.80;;;;110933;1250;41153;-72
2022/04/11 07:56:38;;;;;;;6.70;2.60;;;;;11.90;97471.40;;;;110705;1252;41616;-72
2022/04/11 07:59:07;;;;;;;6.20;2.40;;;;;12.10;97466.20;;;;110932;1250;41162;-73
2022/04/11 08:01:36;;;;;;;8.00;2.40;;;;;12.16;97472.60;;;;110724;1250;41158;-72
2022/04/11 08:04:05;;;;;;;7.30;2.90;;;;;12.30;97473.20;;;;110768;1251;41166;-72
2022/04/11 08:06:34;;;;;;;7.10;2.50;;;;;12.20;97467.20;;;;110842;1249;41589;-72
2022/04/11 08:09:03;;;;;;;6.80;2.50;;;;;12.20;97474.80;;;;110697;1250;41572;-73
2022/04/11 08:11:32;;;;;;;6.40;2.50;;;;;12.20;97472.60;;;;110700;1251;41265;-73
2022/04/11 08:14:01;;;;;;;6.10;2.60;;;;;12.40;97468.80;;;;110927;1251;41164;-73
2022/04/11 08:16:31;;;;;;;8.70;2.50;;;;;12.50;97474.20;;;;110694;1251;42013;-73
2022/04/11 08:19:00;;;;;;;6.90;2.20;;;;;12.60;97465.20;;;;110908;1249;41139;-73
2022/04/11 08:21:29;;;;;;;6.20;2.40;;;;;12.72;97475.00;;;;110955;1250;41235;-73
2022/04/11 08:23:58;;;;;;;7.40;2.50;;;;;13.00;97470.40;;;;110782;1251;42387;-73
2022/04/11 08:26:28;;;;;;;5.70;2.30;;;;;13.10;97472.20;;;;110746;1251;41273;-73
2022/04/11 08:28:57;;;;;;;5.10;2.10;;;;;13.20;97459.40;;;;110663;1253;41182;-73
2022/04/11 08:31:27;;;;;;;5.80;2.20;;;;;13.18;97458.40;;;;110837;1251;41242;-73
2022/04/11 08:33:56;;;;;;;7.00;2.60;;;;;13.40;97464.00;;;;110697;1252;41161;-73
2022/04/11 08:36:25;;;;;;;6.40;2.70;;;;;13.54;97468.20;;;;110860;1251;41166;-74
2022/04/11 08:38:54;;;;;;;6.10;2.10;;;;;13.70;97460.20;;;;110734;1251;41186;-74
2022/04/11 08:41:27;;;;;;;7.70;2.60;;;;;13.76;97462.20;;;;110895;1250;41163;-74
2022/04/11 08:43:57;;;;;;;6.70;2.50;;;;;13.82;97464.80;;;;110877;1249;41448;-73
2022/04/11 08:46:29;;;;;;;7.30;2.20;;;;;13.80;97461.40;;;;110831;1251;41161;-73
2022/04/11 08:49:02;;;;;;;6.60;2.30;;;;;13.90;97459.40;;;;110734;1251;41152;-73
2022/04/11 08:51:33;;;;;;;7.00;2.40;;;;;14.20;97457.40;;;;110657;1252;41130;-73
2022/04/11 08:54:04;;;;;;;6.60;2.50;;;;;14.30;97457.60;;;;110672;1251;41690;-73
2022/04/11 08:56:34;;;;;;;6.30;2.20;;;;;14.52;97452.40;;;;110864;1249;41257;-73
2022/04/11 08:59:03;;;;;;;6.70;2.40;;;;;14.70;97449.60;;;;110803;1249;41344;-73
2022/04/11 09:01:34;;;;;;;6.80;2.60;;;;;14.40;97461.00;;;;110842;1249;41934;-73
2022/04/11 09:04:04;;;;;;;7.10;2.50;;;;;14.50;97458.60;;;;110735;1251;41170;-72
2022/04/11 09:06:59;;;;;;;6.70;2.60;;;;;14.50;97462.00;;;;110947;1249;41308;-73
2022/04/11 09:09:39;;;;;;;5.10;2.30;;;;;14.60;97448.60;;;;110925;1249;42384;-73
2022/04/11 09:12:19;;;;;;;4.60;1.90;;;;;15.00;97446.60;;;;110728;1252;41149;-73
2022/04/11 09:14:53;;;;;;;7.60;2.40;;;;;15.32;97454.60;;;;110931;1250;41133;-73
2022/04/11 09:17:25;;;;;;;7.20;2.50;;;;;15.40;97449.00;;;;110763;1251;41158;-73
2022/04/11 09:20:13;;;;;;;5.10;2.10;;;;;15.40;97447.00;;;;110760;1251;41169;-73
2022/04/11 09:22:43;;;;;;;6.00;2.00;;;;;15.10;97434.40;;;;110918;1251;41970;-73
2022/04/11 09:25:14;;;;;;;7.50;2.00;;;;;15.00;97439.00;;;;110913;1250;41593;-74
2022/04/11 09:27:45;;;;;;;5.00;2.00;;;;;15.10;97443.60;;;;110897;1250;41811;-73
2022/04/11 09:30:18;;;;;;;5.50;2.20;;;;;15.20;97439.60;;;;110757;1251;41322;-73
2022/04/11 09:32:53;;;;;;;6.10;2.20;;;;;15.38;97444.40;;;;110707;1252;41721;-72
2022/04/11 09:35:26;;;;;;;5.70;2.00;;;;;15.26;97432.00;;;;110920;1249;41148;-72
2022/04/11 09:38:12;;;;;;;8.00;2.30;;;;;14.80;97432.40;;;;110946;1249;41153;-73
2022/04/11 09:40:53;;;;;;;7.40;2.20;;;;;14.40;97434.80;;;;110790;1251;41943;-73
2022/04/11 09:43:31;;;;;;;6.20;2.10;;;;;14.70;97432.00;;;;110752;1250;41512;-73
2022/04/11 09:46:03;;;;;;;5.00;2.10;;;;;14.60;97425.80;;;;110783;1251;41163;-73
2022/04/11 09:48:37;;;;;;;6.80;2.20;;;;;14.28;97435.60;;;;110951;1249;42051;-73
2022/04/11 09:51:12;;;;;;;5.80;2.20;;;;;14.10;97442.40;;;;110811;1249;41154;-73
2022/04/11 09:53:43;;;;;;;6.00;2.20;;;;;13.90;97440.00;;;;110797;1251;41866;-73
2022/04/11 09:56:13;;;;;;;5.90;2.20;;;;;13.70;97437.00;;;;110655;1252;41556;-72
2022/04/11 09:58:42;;;;;;;6.10;2.00;;;;;13.40;97441.00;;;;110936;1251;41513;-73
2022/04/11 10:01:11;;;;;;;4.40;1.90;;;;;13.40;97442.40;;;;110739;1251;41172;-73
2022/04/11 10:03:41;;;;;;;5.20;2.10;;;;;13.20;97448.60;;;;110548;1251;41314;-73
2022/04/11 10:06:12;;;;;;;4.90;2.00;;;;;13.10;97449.60;;;;110713;1252;41265;-73
2022/04/11 10:08:41;;;;;;;;;;;;;12.80;97455.80;;;;110772;1251;41821;-72
2022/04/11 10:11:11;;;;;;;4.70;2.00;;;;;12.20;97449.60;;;;110849;1251;41150;-72
2022/04/11 10:13:40;;;;;;;6.00;2.10;;;;;12.00;97448.40;;;;110752;1250;41140;-72
2022/04/11 10:16:09;;;;;;;5.60;2.00;;;;;11.90;97450.00;;;;110884;1250;42075;-72
2022/04/11 10:18:39;;;;;;;6.20;2.40;;;;;11.80;97456.00;;;;110729;1251;41168;-72
2022/04/11 10:21:10;;;;;;;6.60;2.10;;;;;11.98;97445.60;;;;110929;1249;41139;-71
2022/04/11 10:23:56;;;;;;;5.50;2.30;;;;;12.58;97448.20;;;;110780;1250;41249;-72
2022/04/11 10:26:27;;;;;;;6.20;2.40;;;;;13.18;97436.80;;;;110775;1251;41266;-72
2022/04/11 10:28:56;;;;;;;4.90;2.10;;;;;14.36;97427.60;;;;110962;1249;41118;-73
2022/04/11 10:31:35;;;;;;;4.60;2.00;;;;;15.86;97420.40;;;;110781;1251;41879;-73
2022/04/11 10:34:05;;;;;;;5.70;2.20;;;;;17.42;97404.40;;;;110802;1251;41252;-73
2022/04/11 10:36:56;;;;;;;5.10;2.10;;;;;19.30;97398.80;;;;110921;1249;41262;-73
2022/04/11 10:39:28;;;;;;;3.10;1.70;;;;;20.82;97407.80;;;;110902;1250;41154;-73
2022/04/11 10:41:57;;;;;;;;;;;;;20.90;97416.80;;;;110928;1250;41156;-72
2022/04/11 10:44:35;;;;;;;4.90;1.70;;;;;19.60;97418.40;;;;110819;1249;41156;-73
2022/04/11 10:47:07;;;;;;;3.50;1.60;;;;;18.22;97422.60;;;;110752;1250;41174;-73
2022/04/11 10:49:49;;;;;;;5.20;1.70;;;;;17.14;97431.80;;;;110873;1250;41534;-72
2022/04/11 10:52:27;;;;;;;5.00;1.80;;;;;16.56;97434.20;;;;110813;1250;41236;-72
2022/04/11 10:55:03;;;;;;;6.00;1.90;;;;;16.56;97433.20;;;;110824;1251;41851;-72
2022/04/11 10:57:38;;;;;;;5.80;1.80;;;;;16.80;97434.00;;;;110760;1251;42328;-72
2022/04/11 11:00:12;;;;;;;5.30;2.00;;;;;17.00;97427.00;;;;110661;1252;41499;-72
2022/04/11 11:05:39;;;;;;;3.00;1.60;;;;;16.14;97431.40;;;;110937;1249;41171;-72
2022/04/11 11:08:12;;;;;;;5.10;1.90;;;;;15.70;97431.20;;;;110914;1249;42475;-72
2022/04/11 11:10:44;;;;;;;4.80;1.80;;;;;15.08;97439.60;;;;110898;1250;40953;-72
2022/04/11 11:13:29;;;;;;;5.70;2.00;;;;;15.00;97422.20;;;;110841;1250;41271;-73
2022/04/11 11:16:00;;;;;;;2.90;1.50;;;;;16.28;97417.00;;;;110800;1249;41879;-73
2022/04/11 11:21:48;;;;;;;5.30;1.90;;;;;19.54;97399.60;;;;110707;1251;41793;-72
2022/04/11 11:24:19;;;;;;;3.10;1.70;;;;;20.62;97400.40;;;;110902;1250;41158;-72
2022/04/11 11:26:53;;;;;;;3.70;1.60;;;;;20.72;97389.20;;;;110636;1252;41163;-73
2022/04/11 11:29:26;;;;;;;6.10;1.80;;;;;20.60;97409.60;;;;110488;1251;41176;-73
2022/04/11 11:32:02;;;;;;;3.30;1.70;;;;;20.70;97392.00;;;;110720;1252;42178;-72
2022/04/11 11:34:36;;;;;;;3.20;1.60;;;;;19.62;97415.00;;;;110651;1251;41571;-72
2022/04/11 11:37:12;;;;;;;4.50;1.80;;;;;18.74;97421.60;;;;110702;1251;41161;-73
2022/04/11 11:39:45;;;;;;;4.20;1.70;;;;;18.30;97405.60;;;;110619;1253;41605;-73
2022/04/11 11:42:15;;;;;;;3.80;1.80;;;;;18.10;97405.60;;;;110675;1252;41182;-72
2022/04/11 11:44:46;;;;;;;;;;;;;18.02;97415.00;;;;110673;1252;41134;-73
2022/04/11 11:47:15;;;;;;;4.90;1.90;;;;;17.50;97423.60;;;;110675;1251;41138;-73
2022/04/11 11:49:47;;;;;;;5.50;2.00;;;;;17.04;97433.00;;;;110778;1251;41160;-72
2022/04/11 11:52:19;;;;;;;4.30;1.70;;;;;16.74;97432.40;;;;110699;1252;41268;-71
2022/04/11 11:54:52;;;;;;;5.90;2.00;;;;;16.60;97433.00;;;;110627;1252;41145;-72
2022/04/11 11:57:29;;;;;;;5.10;2.00;;;;;16.50;97433.60;;;;110608;1252;41179;-72
2022/04/11 12:00:01;;;;;;;2.90;1.60;;;;;16.80;97427.60;;;;110684;1252;41401;-72
2022/04/11 12:05:29;;;;;;;4.90;1.80;;;;;16.30;97442.60;;;;110664;1251;41171;-73
2022/04/11 12:08:13;;;;;;;4.00;1.70;;;;;16.10;97450.60;;;;110753;1252;41156;-72
2022/04/11 12:10:53;;;;;;;3.70;1.60;;;;;15.60;97455.80;;;;110856;1250;41274;-72
2022/04/11 12:13:23;;;;;;;4.60;1.60;;;;;15.22;97465.40;;;;110726;1251;41135;-72
2022/04/11 12:15:53;;;;;;;3.30;1.50;;;;;14.88;97461.40;;;;110745;1252;41134;-72
2022/04/11 12:18:22;;;;;;;2.60;1.50;;;;;14.24;97463.60;;;;110729;1249;41174;-71
2022/04/11 12:20:51;;;;;;;4.10;1.50;;;;;13.20;97461.60;;;;110823;1251;41270;-71
2022/04/11 12:23:20;;;;;;;3.50;1.60;;;;;12.92;97464.00;;;;110849;1250;42385;-71
2022/04/11 12:25:54;;;;;;;3.00;1.60;;;;;12.40;97467.00;;;;110679;1251;41648;-71
2022/04/11 12:28:27;;;;;;;4.10;1.70;;;;;12.30;97458.00;;;;110833;1251;41270;-72
2022/04/11 12:31:03;;;;;;;4.50;1.70;;;;;12.42;97457.00;;;;110910;1250;41141;-71
2022/04/11 12:33:36;;;;;;;6.10;1.90;;;;;12.70;97448.20;;;;110801;1252;41260;-73
2022/04/11 12:36:05;;;;;;;4.60;1.80;;;;;12.86;97446.60;;;;110761;1252;43031;-73
2022/04/11 12:38:41;;;;;;;3.30;1.70;;;;;13.28;97446.80;;;;110644;1251;41741;-73
2022/04/11 12:41:29;;;;;;;3.80;1.60;;;;;13.28;97442.40;;;;110840;1251;41150;-72
2022/04/11 12:44:07;;;;;;;4.60;1.70;;;;;13.30;97442.20;;;;110863;1251;41363;-72